createdAt,value
2023-03-06T00:01:09.104Z,67207.09
2023-03-06T00:03:39.715Z,67207.09
2023-03-06T00:06:07.331Z,67205.63
2023-03-06T00:08:35.362Z,67204.84
2023-03-06T00:11:02.467Z,67207.44
2023-03-06T00:13:31.197Z,67201.13
2023-03-06T00:16:01.324Z,67200.53
2023-03-06T00:18:30.589Z,67203.16
2023-03-06T00:21:00.949Z,67201.69
2023-03-06T00:23:28.060Z,67208.00
2023-03-06T00:25:55.186Z,67200.00
2023-03-06T00:28:24.631Z,67198.31
2023-03-06T00:30:51.983Z,67196.63
2023-03-06T00:33:19.165Z,67196.25
2023-03-06T00:35:48.545Z,67198.31
2023-03-06T00:38:15.826Z,67203.72
2023-03-06T00:40:43.248Z,67202.94
2023-03-06T00:43:10.434Z,67200.34
2023-03-06T00:45:38.746Z,67200.72
2023-03-06T00:48:05.960Z,67199.44
2023-03-06T00:50:34.067Z,67197.75
2023-03-06T00:53:01.205Z,67196.97
2023-03-06T00:55:29.544Z,67198.66
2023-03-06T00:57:56.893Z,67197.53
2023-03-06T01:00:24.417Z,67195.88
2023-03-06T01:02:53.700Z,67194.38
2023-03-06T01:05:22.753Z,67193.81
2023-03-06T01:07:50.058Z,67192.47
2023-03-06T01:10:17.486Z,67187.63
2023-03-06T01:12:54.786Z,67179.97
2023-03-06T01:15:22.700Z,67186.50
2023-03-06T01:17:53.736Z,67183.91
2023-03-06T01:20:22.381Z,67179.75
2023-03-06T01:22:49.678Z,67176.59
2023-03-06T01:25:18.266Z,67173.22
2023-03-06T01:27:45.866Z,67182.50
2023-03-06T01:30:13.882Z,67176.75
2023-03-06T01:32:42.669Z,67170.34
2023-03-06T01:35:10.780Z,67167.53
2023-03-06T01:37:40.027Z,67166.28
2023-03-06T01:40:08.929Z,67163.47
2023-03-06T01:42:37.374Z,67166.84
2023-03-06T01:45:13.655Z,67160.09
2023-03-06T01:47:40.770Z,67164.75
2023-03-06T01:50:11.695Z,67166.97
2023-03-06T01:52:48.594Z,67157.44
2023-03-06T01:55:21.222Z,67153.72
2023-03-06T01:57:59.649Z,67145.50
2023-03-06T02:00:29.152Z,67152.38
2023-03-06T02:03:28.475Z,67147.75
2023-03-06T02:05:55.952Z,67149.56
2023-03-06T02:08:24.639Z,67139.53
2023-03-06T02:11:25.686Z,67149.22
2023-03-06T02:13:55.101Z,67144.94
2023-03-06T02:16:26.568Z,67153.50
2023-03-06T02:18:54.301Z,67155.75
2023-03-06T02:21:30.810Z,67153.72
2023-03-06T02:24:04.545Z,67153.38
2023-03-06T02:26:34.600Z,67155.59
2023-03-06T02:29:01.973Z,67151.13
2023-03-06T02:31:31.834Z,67155.75
2023-03-06T02:34:15.256Z,67157.06
2023-03-06T02:36:55.826Z,67160.66
2023-03-06T02:39:28.138Z,67164.38
2023-03-06T02:41:55.284Z,67151.31
2023-03-06T02:44:23.873Z,67153.16
2023-03-06T02:46:50.962Z,67159.91
2023-03-06T02:49:18.115Z,67147.75
2023-03-06T02:51:45.271Z,67140.44
2023-03-06T02:54:18.368Z,67152.94
2023-03-06T02:56:49.495Z,67149.22
2023-03-06T02:59:17.003Z,67151.81
2023-03-06T03:01:45.483Z,67139.88
2023-03-06T03:04:13.527Z,67142.47
2023-03-06T03:06:41.344Z,67140.22
2023-03-06T03:09:09.141Z,67135.38
2023-03-06T03:11:37.938Z,67135.19
2023-03-06T03:14:05.339Z,67126.97
2023-03-06T03:16:39.085Z,67127.66
2023-03-06T03:19:10.385Z,67121.91
2023-03-06T03:21:40.993Z,67118.19
2023-03-06T03:24:08.634Z,67118.53
2023-03-06T03:26:36.394Z,67120.91
2023-03-06T03:29:12.060Z,67124.84
2023-03-06T03:31:40.525Z,67115.16
2023-03-06T03:34:08.775Z,67110.09
2023-03-06T03:36:39.560Z,67120.00
2023-03-06T03:39:09.257Z,67122.59
2023-03-06T03:41:38.026Z,67072.47
2023-03-06T03:44:08.995Z,67110.09
2023-03-06T03:46:36.998Z,67114.75
2023-03-06T03:49:09.774Z,67111.38
2023-03-06T03:51:39.268Z,67108.22
2023-03-06T03:54:07.251Z,67106.53
2023-03-06T03:56:44.527Z,67105.97
2023-03-06T03:59:21.147Z,67102.03
2023-03-06T04:01:59.679Z,67098.44
2023-03-06T04:04:27.739Z,67100.91
2023-03-06T04:06:54.916Z,67103.38
2023-03-06T04:09:22.393Z,67123.38
2023-03-06T04:11:49.624Z,67112.94
2023-03-06T04:14:17.258Z,67111.38
2023-03-06T04:16:44.440Z,67112.34
2023-03-06T04:19:11.837Z,67107.09
2023-03-06T04:21:40.370Z,67097.19
2023-03-06T04:24:09.134Z,67107.31
2023-03-06T04:26:36.918Z,67115.84
2023-03-06T04:29:04.941Z,67100.56
2023-03-06T04:31:32.318Z,67108.56
2023-03-06T04:33:59.449Z,67113.84
2023-03-06T04:36:34.708Z,67115.84
2023-03-06T04:39:08.546Z,67118.69
2023-03-06T04:41:35.727Z,67118.69
2023-03-06T04:44:03.080Z,67113.25
2023-03-06T04:46:30.243Z,67117.78
2023-03-06T04:48:58.382Z,67112.34
2023-03-06T04:51:25.516Z,67110.66
2023-03-06T04:53:52.822Z,67114.41
2023-03-06T04:56:22.080Z,67115.84
2023-03-06T04:58:50.693Z,67118.13
2023-03-06T05:01:18.673Z,67117.78
2023-03-06T05:03:48.291Z,67114.41
2023-03-06T05:06:24.933Z,67119.47
2023-03-06T05:08:52.026Z,67119.47
2023-03-06T05:11:22.746Z,67119.66
2023-03-06T05:13:50.567Z,67113.25
2023-03-06T05:16:18.341Z,67109.13
2023-03-06T05:18:46.343Z,67106.53
2023-03-06T05:21:14.430Z,67105.63
2023-03-06T05:23:42.123Z,67105.41
2023-03-06T05:26:11.771Z,67110.25
2023-03-06T05:28:39.411Z,67091.00
2023-03-06T05:31:07.783Z,67091.38
2023-03-06T05:33:35.836Z,67095.66
2023-03-06T05:36:03.797Z,67088.78
2023-03-06T05:38:32.128Z,67093.97
2023-03-06T05:40:59.484Z,67089.47
2023-03-06T05:43:26.778Z,67086.88
2023-03-06T05:46:04.113Z,67088.56
2023-03-06T05:48:35.751Z,67098.69
2023-03-06T05:51:04.690Z,67098.69
2023-03-06T05:53:34.427Z,67100.56
2023-03-06T05:56:04.569Z,67107.44
2023-03-06T05:58:36.138Z,67102.25
2023-03-06T06:01:16.007Z,67104.28
2023-03-06T06:03:44.527Z,67104.84
2023-03-06T06:06:13.699Z,67101.13
2023-03-06T06:08:41.432Z,67110.81
2023-03-06T06:11:10.180Z,67110.47
2023-03-06T06:13:38.488Z,67115.16
2023-03-06T06:16:15.747Z,67119.47
2023-03-06T06:18:43.976Z,67121.91
2023-03-06T06:21:13.502Z,67079.22
2023-03-06T06:23:41.981Z,67129.34
2023-03-06T06:26:10.375Z,67120.44
2023-03-06T06:28:38.506Z,67122.13
2023-03-06T06:31:14.262Z,67136.09
2023-03-06T06:33:41.681Z,67137.63
2023-03-06T06:36:17.240Z,67136.28
2023-03-06T06:38:44.374Z,67139.66
2023-03-06T06:41:38.997Z,67144.94
2023-03-06T06:43:59.258Z,67155.38
2023-03-06T06:47:10.825Z,67172.59
2023-03-06T06:49:15.246Z,67177.88
2023-03-06T06:51:42.440Z,67179.75
2023-03-06T06:54:10.760Z,67190.44
2023-03-06T06:56:38.167Z,67207.66
2023-03-06T06:59:16.069Z,67195.28
2023-03-06T07:01:44.501Z,67200.53
2023-03-06T07:04:13.286Z,67199.44
2023-03-06T07:06:41.343Z,67199.44
2023-03-06T07:09:08.595Z,67205.06
2023-03-06T07:11:38.246Z,67216.84
2023-03-06T07:14:05.676Z,67224.16
2023-03-06T07:16:33.127Z,67229.56
2023-03-06T07:19:00.257Z,67235.38
2023-03-06T07:21:27.772Z,67246.44
2023-03-06T07:23:59.500Z,67240.69
2023-03-06T07:26:42.953Z,67241.38
2023-03-06T07:29:12.362Z,67243.63
2023-03-06T07:31:50.334Z,67242.50
2023-03-06T07:34:17.364Z,67244.19
2023-03-06T07:36:44.403Z,67210.06
2023-03-06T07:39:11.510Z,67264.78
2023-03-06T07:41:38.658Z,67267.25
2023-03-06T07:44:05.753Z,67286.69
2023-03-06T07:46:32.863Z,67291.22
2023-03-06T07:48:59.991Z,67309.97
2023-03-06T07:51:27.106Z,67302.09
2023-03-06T07:53:54.309Z,67305.69
2023-03-06T07:56:21.538Z,67317.28
2023-03-06T07:58:48.727Z,67332.13
2023-03-06T08:01:19.850Z,67329.09
2023-03-06T08:03:49.880Z,67336.06
2023-03-06T08:06:22.803Z,67338.31
2023-03-06T08:08:51.418Z,67366.22
2023-03-06T08:11:21.007Z,67374.09
2023-03-06T08:13:48.894Z,67376.72
2023-03-06T08:16:17.287Z,67358.34
2023-03-06T08:18:46.227Z,67358.34
2023-03-06T08:21:16.120Z,67373.78
2023-03-06T08:23:43.918Z,67372.06
2023-03-06T08:26:12.346Z,67378.03
2023-03-06T08:28:39.730Z,67372.41
2023-03-06T08:31:19.695Z,67355.97
2023-03-06T08:33:47.141Z,67338.66
2023-03-06T08:36:14.218Z,67318.41
2023-03-06T08:38:41.438Z,67313.56
2023-03-06T08:41:08.658Z,67318.22
2023-03-06T08:43:36.054Z,67316.38
2023-03-06T08:46:03.366Z,67325.16
2023-03-06T08:48:33.730Z,67324.63
2023-03-06T08:51:08.077Z,67323.47
2023-03-06T08:53:46.663Z,67326.84
2023-03-06T08:56:18.263Z,67331.72
2023-03-06T08:58:45.975Z,67342.75
2023-03-06T09:01:19.842Z,67327.84
2023-03-06T09:03:47.585Z,67332.50
2023-03-06T09:06:15.495Z,67342.25
2023-03-06T09:08:53.356Z,67346.00
2023-03-06T09:11:22.109Z,67319.31
2023-03-06T09:13:49.294Z,67306.03
2023-03-06T09:16:16.698Z,67307.50
2023-03-06T09:18:52.929Z,67324.03
2023-03-06T09:21:21.909Z,67324.63
2023-03-06T09:23:49.559Z,67327.63
2023-03-06T09:26:16.815Z,67327.63
2023-03-06T09:28:43.963Z,67360.41
2023-03-06T09:31:14.062Z,67381.06
2023-03-06T09:33:41.446Z,67413.16
2023-03-06T09:36:13.708Z,67433.44
2023-03-06T09:38:41.086Z,67444.28
2023-03-06T09:41:26.493Z,67458.00
2023-03-06T09:44:04.783Z,67454.25
2023-03-06T09:47:01.132Z,67494.59
2023-03-06T09:50:10.315Z,67498.75
2023-03-06T09:52:46.482Z,67504.94
2023-03-06T09:55:20.446Z,67517.91
2023-03-06T10:01:19.196Z,67482.56
2023-03-06T10:04:12.671Z,67482.22
2023-03-06T10:06:53.638Z,67478.84
2023-03-06T10:09:28.462Z,67460.66
2023-03-06T10:12:02.565Z,67452.16
2023-03-06T10:14:38.749Z,67453.13
2023-03-06T10:17:11.239Z,67446.72
2023-03-06T10:19:42.241Z,67418.59
2023-03-06T10:22:30.750Z,67389.88
2023-03-06T10:25:10.469Z,67375.81
2023-03-06T10:27:51.185Z,67370.94
2023-03-06T10:30:31.204Z,67390.81
2023-03-06T10:33:02.084Z,67382.00
2023-03-06T10:35:40.646Z,67373.34
2023-03-06T10:38:23.424Z,67383.84
2023-03-06T10:41:21.048Z,67385.16
2023-03-06T10:44:18.530Z,67393.25
2023-03-06T10:46:47.146Z,67408.44
2023-03-06T10:49:14.163Z,67393.47
2023-03-06T10:51:56.256Z,67388.38
2023-03-06T10:54:23.720Z,67378.25
2023-03-06T10:56:50.908Z,67358.00
2023-03-06T10:59:22.926Z,67333.59
2023-03-06T11:01:53.986Z,67320.69
2023-03-06T11:04:21.802Z,67306.03
2023-03-06T11:06:49.765Z,67268.34
2023-03-06T11:09:23.387Z,67251.16
2023-03-06T11:11:51.361Z,67248.50
2023-03-06T11:14:22.908Z,67236.31
2023-03-06T11:16:53.426Z,67236.88
2023-03-06T11:19:29.674Z,67253.94
2023-03-06T11:22:07.027Z,67279.06
2023-03-06T11:24:42.306Z,67297.94
2023-03-06T11:27:34.854Z,67300.63
2023-03-06T11:30:34.949Z,67318.63
2023-03-06T11:33:11.229Z,67327.84
2023-03-06T11:35:49.554Z,67345.78
2023-03-06T11:38:34.252Z,67347.88
2023-03-06T11:41:05.866Z,67348.22
2023-03-06T11:44:02.581Z,67366.22
2023-03-06T11:46:43.946Z,67382.94
2023-03-06T11:49:25.671Z,67392.69
2023-03-06T11:51:56.327Z,67406.75
2023-03-06T11:54:23.751Z,67417.66
2023-03-06T11:57:12.448Z,67429.84
2023-03-06T11:59:51.635Z,67451.81
2023-03-06T12:02:25.673Z,67461.38
2023-03-06T12:05:30.726Z,67456.84
2023-03-06T12:08:17.441Z,67439.97
2023-03-06T12:10:57.369Z,67441.09
2023-03-06T12:14:04.077Z,67450.31
2023-03-06T12:16:53.479Z,67488.03
2023-03-06T12:19:42.466Z,67472.28
2023-03-06T12:22:29.616Z,67485.25
2023-03-06T12:25:19.637Z,67482.97
2023-03-06T12:28:11.484Z,67484.09
2023-03-06T12:31:16.658Z,67514.31
2023-03-06T12:34:10.036Z,67535.94
2023-03-06T12:36:55.515Z,67522.78
2023-03-06T12:39:55.881Z,67505.66
2023-03-06T12:42:35.942Z,67496.16
2023-03-06T12:45:21.912Z,67508.34
2023-03-06T12:48:01.211Z,67507.75
2023-03-06T12:50:38.161Z,67492.72
2023-03-06T12:53:32.303Z,67481.84
2023-03-06T12:56:02.072Z,67481.84
2023-03-06T12:58:30.844Z,67498.00
2023-03-06T13:01:20.062Z,67516.38
2023-03-06T13:04:08.162Z,67527.63
2023-03-06T13:06:51.229Z,67533.47
2023-03-06T13:09:29.182Z,67529.75
2023-03-06T13:11:58.972Z,67522.25
2023-03-06T13:14:48.632Z,67569.53
2023-03-06T13:17:30.492Z,67594.34
2023-03-06T13:20:43.268Z,67596.03
2023-03-06T13:23:29.114Z,67600.19
2023-03-06T13:26:01.980Z,67620.47
2023-03-06T13:28:50.360Z,67630.06
2023-03-06T13:31:28.272Z,67619.72
2023-03-06T13:34:00.826Z,67620.28
2023-03-06T13:36:34.424Z,67635.13
2023-03-06T13:39:05.731Z,67640.97
2023-03-06T13:41:43.144Z,67624.78
2023-03-06T13:44:32.231Z,67672.56
2023-03-06T13:47:08.411Z,67677.78
2023-03-06T13:49:49.462Z,67662.56
2023-03-06T13:52:35.487Z,67662.00
2023-03-06T13:55:41.728Z,67669.53
2023-03-06T13:58:48.738Z,67670.81
2023-03-06T14:01:36.083Z,67651.88
2023-03-06T14:05:08.021Z,67649.03
2023-03-06T14:07:43.697Z,67634.00
2023-03-06T14:10:15.126Z,67597.00
2023-03-06T14:12:59.848Z,67614.63
2023-03-06T14:15:31.922Z,67602.66
2023-03-06T14:18:23.583Z,67574.81
2023-03-06T14:20:55.360Z,67542.69
2023-03-06T14:23:43.408Z,67562.78
2023-03-06T14:26:24.670Z,67561.66
2023-03-06T14:28:52.043Z,67537.63
2023-03-06T14:31:33.890Z,67523.19
2023-03-06T14:34:05.208Z,67501.56
2023-03-06T14:36:57.996Z,67511.88
2023-03-06T14:39:47.120Z,67508.13
2023-03-06T14:42:29.389Z,67536.31
2023-03-06T14:45:22.660Z,67557.16
2023-03-06T14:47:51.417Z,67581.38
2023-03-06T14:50:29.552Z,67598.47
2023-03-06T14:53:48.264Z,67593.44
2023-03-06T14:56:24.196Z,67604.13
2023-03-06T14:58:57.164Z,67587.22
2023-03-06T15:01:48.344Z,67569.75
2023-03-06T15:04:29.255Z,67546.63
2023-03-06T15:06:57.846Z,67547.22
2023-03-06T15:09:32.234Z,67535.16
2023-03-06T15:12:07.983Z,67515.66
2023-03-06T15:14:45.198Z,67511.16
2023-03-06T15:17:46.337Z,67540.25
2023-03-06T15:20:57.094Z,67539.88
2023-03-06T15:23:34.594Z,67507.19
2023-03-06T15:26:19.234Z,67500.78
2023-03-06T15:29:07.005Z,67493.13
2023-03-06T15:31:40.950Z,67482.41
2023-03-06T15:34:09.223Z,67483.91
2023-03-06T15:36:47.441Z,67484.25
2023-03-06T15:39:34.700Z,67454.97
2023-03-06T15:42:08.206Z,67385.94
2023-03-06T15:44:38.212Z,67326.84
2023-03-06T15:47:09.282Z,67300.22
2023-03-06T15:49:38.765Z,67287.84
2023-03-06T15:52:09.454Z,67271.97
2023-03-06T15:54:39.647Z,67259.00
2023-03-06T15:57:13.980Z,67250.94
2023-03-06T15:59:43.831Z,67231.47
2023-03-06T16:02:15.877Z,67220.22
2023-03-06T16:04:44.118Z,67197.31
2023-03-06T16:07:12.209Z,67170.00
2023-03-06T16:09:40.720Z,67147.53
2023-03-06T16:12:15.111Z,67138.56
2023-03-06T16:14:42.416Z,67129.91
2023-03-06T16:17:12.306Z,67120.78
2023-03-06T16:19:42.642Z,67122.25
2023-03-06T16:22:10.297Z,67120.00
2023-03-06T16:24:37.628Z,67115.16
2023-03-06T16:27:07.956Z,67113.47
2023-03-06T16:29:35.630Z,67116.63
2023-03-06T16:32:12.568Z,67114.03
2023-03-06T16:34:42.298Z,67120.00
2023-03-06T16:37:16.068Z,67125.41
2023-03-06T16:39:45.803Z,67124.13
2023-03-06T16:42:13.039Z,67129.75
2023-03-06T16:44:45.882Z,67128.66
2023-03-06T16:47:18.741Z,67136.09
2023-03-06T16:49:46.128Z,67132.34
2023-03-06T16:52:14.622Z,67135.53
2023-03-06T16:54:44.533Z,67133.50
2023-03-06T16:57:17.470Z,67138.88
2023-03-06T16:59:50.493Z,67132.56
2023-03-06T17:02:17.650Z,67134.81
2023-03-06T17:04:44.980Z,67137.97
2023-03-06T17:07:13.020Z,67137.06
2023-03-06T17:09:40.077Z,67145.41
2023-03-06T17:12:10.188Z,67138.19
2023-03-06T17:14:40.892Z,67141.00
2023-03-06T17:17:08.046Z,67144.72
2023-03-06T17:19:35.277Z,67143.81
2023-03-06T17:22:05.078Z,67148.09
2023-03-06T17:24:35.415Z,67148.84
2023-03-06T17:27:02.550Z,67152.03
2023-03-06T17:29:32.059Z,67154.84
2023-03-06T17:32:00.029Z,67153.72
2023-03-06T17:34:27.824Z,67162.28
2023-03-06T17:36:58.048Z,67157.06
2023-03-06T17:39:25.104Z,67157.06
2023-03-06T17:41:56.665Z,67161.91
2023-03-06T17:44:34.430Z,67160.44
2023-03-06T17:47:02.901Z,67155.81
2023-03-06T17:49:32.439Z,67163.28
2023-03-06T17:52:07.086Z,67163.47
2023-03-06T17:54:34.574Z,67164.03
2023-03-06T17:57:03.709Z,67167.97
2023-03-06T17:59:34.419Z,67174.84
2023-03-06T18:02:02.652Z,67169.44
2023-03-06T18:04:38.945Z,67170.56
2023-03-06T18:07:13.663Z,67161.06
2023-03-06T18:09:50.266Z,67172.59
2023-03-06T18:12:20.081Z,67176.19
2023-03-06T18:14:48.731Z,67176.75
2023-03-06T18:17:16.692Z,67174.72
2023-03-06T18:19:49.609Z,67175.63
2023-03-06T18:22:28.335Z,67169.66
2023-03-06T18:24:58.528Z,67166.84
2023-03-06T18:27:27.377Z,67164.94
2023-03-06T18:29:55.786Z,67161.78
2023-03-06T18:32:23.236Z,67161.59
2023-03-06T18:34:55.281Z,67164.75
2023-03-06T18:37:24.686Z,67160.09
2023-03-06T18:40:15.634Z,67160.09
2023-03-06T18:42:45.907Z,67165.28
2023-03-06T18:45:16.493Z,67161.78
2023-03-06T18:47:43.836Z,67161.59
2023-03-06T18:50:16.499Z,67159.53
2023-03-06T18:52:44.472Z,67166.44
2023-03-06T18:55:15.613Z,67164.75
2023-03-06T18:57:42.861Z,67161.00
2023-03-06T19:00:10.799Z,67160.44
2023-03-06T19:02:37.998Z,67159.91
2023-03-06T19:05:05.498Z,67153.38
2023-03-06T19:07:32.768Z,67154.28
2023-03-06T19:09:59.848Z,67150.00
2023-03-06T19:12:27.100Z,67155.75
2023-03-06T19:14:54.329Z,67158.00
2023-03-06T19:17:24.882Z,67153.16
2023-03-06T19:19:53.264Z,67145.69
2023-03-06T19:22:20.692Z,67150.00
2023-03-06T19:24:50.181Z,67149.22
2023-03-06T19:27:17.512Z,67147.53
2023-03-06T19:29:44.705Z,67146.78
2023-03-06T19:32:11.960Z,67147.31
2023-03-06T19:34:40.082Z,67145.28
2023-03-06T19:37:08.479Z,67143.59
2023-03-06T19:39:35.648Z,67144.72
2023-03-06T19:42:04.667Z,67141.00
2023-03-06T19:44:31.933Z,67137.06
2023-03-06T19:46:59.164Z,67147.88
2023-03-06T19:49:26.644Z,67143.81
2023-03-06T19:51:56.019Z,67146.41
2023-03-06T19:54:26.855Z,67145.84
2023-03-06T19:56:54.224Z,67146.63
2023-03-06T19:59:21.606Z,67149.44
2023-03-06T20:01:49.087Z,67156.88
2023-03-06T20:04:17.054Z,67153.16
2023-03-06T20:06:46.678Z,67153.72
2023-03-06T20:09:14.120Z,67149.78
2023-03-06T20:11:41.371Z,67149.06
2023-03-06T20:14:10.454Z,67150.91
2023-03-06T20:16:38.172Z,67151.13
2023-03-06T20:19:06.157Z,67154.63
2023-03-06T20:21:37.664Z,67148.31
2023-03-06T20:24:07.110Z,67141.34
2023-03-06T20:26:36.694Z,67139.31
2023-03-06T20:29:03.930Z,67136.88
2023-03-06T20:31:31.192Z,67139.66
2023-03-06T20:33:59.470Z,67141.72
2023-03-06T20:36:30.676Z,67135.38
2023-03-06T20:39:01.897Z,67139.66
2023-03-06T20:41:31.077Z,67140.78
2023-03-06T20:44:00.414Z,67148.44
2023-03-06T20:46:29.878Z,67153.16
2023-03-06T20:48:58.286Z,67156.53
2023-03-06T20:51:31.793Z,67151.13
2023-03-06T20:54:10.086Z,67156.88
2023-03-06T20:56:39.579Z,67152.03
2023-03-06T20:59:11.982Z,67154.28
2023-03-06T21:01:43.105Z,67163.81
2023-03-06T21:04:20.425Z,67167.75
2023-03-06T21:06:47.656Z,67165.50
2023-03-06T21:09:25.943Z,67174.50
2023-03-06T21:11:53.041Z,67177.88
2023-03-06T21:14:20.231Z,67172.47
2023-03-06T21:16:47.463Z,67186.09
2023-03-06T21:19:17.236Z,67186.09
2023-03-06T21:21:44.297Z,67183.13
2023-03-06T21:24:11.429Z,67187.78
2023-03-06T21:26:40.964Z,67175.63
2023-03-06T21:29:09.150Z,67174.28
2023-03-06T21:31:36.924Z,67161.91
2023-03-06T21:34:05.260Z,67171.13
2023-03-06T21:36:35.812Z,67161.66
2023-03-06T21:39:06.457Z,67153.72
2023-03-06T21:41:34.137Z,67151.69
2023-03-06T21:44:04.497Z,67149.56
2023-03-06T21:46:32.508Z,67153.16
2023-03-06T21:49:01.674Z,67143.59
2023-03-06T21:51:29.008Z,67134.81
2023-03-06T21:53:56.317Z,67128.66
2023-03-06T21:56:25.403Z,67127.50
2023-03-06T21:58:52.980Z,67127.31
2023-03-06T22:01:26.790Z,67138.88
2023-03-06T22:03:54.463Z,67120.22
2023-03-06T22:06:27.784Z,67125.06
2023-03-06T22:08:56.686Z,67110.34
2023-03-06T22:11:25.514Z,67115.16
2023-03-06T22:13:55.743Z,67117.63
2023-03-06T22:16:22.930Z,67117.78
2023-03-06T22:18:51.573Z,67119.22
2023-03-06T22:21:22.250Z,67110.09
2023-03-06T22:23:51.507Z,67114.03
2023-03-06T22:26:22.592Z,67104.66
2023-03-06T22:28:51.342Z,67102.03
2023-03-06T22:31:25.161Z,67065.19
2023-03-06T22:33:54.025Z,67099.22
2023-03-06T22:36:25.251Z,67099.03
2023-03-06T22:39:09.131Z,67098.31
2023-03-06T22:41:39.893Z,67101.81
2023-03-06T22:44:07.264Z,67089.69
2023-03-06T22:46:34.527Z,67098.13
2023-03-06T22:49:02.309Z,67095.44
2023-03-06T22:51:29.729Z,67098.44
2023-03-06T22:53:57.068Z,67090.59
2023-03-06T22:56:27.677Z,67091.38
2023-03-06T22:58:57.790Z,67107.88
2023-03-06T23:01:28.048Z,67114.03
2023-03-06T23:04:11.026Z,67127.09
2023-03-06T23:06:46.364Z,67121.47
2023-03-06T23:09:23.197Z,67116.28
2023-03-06T23:12:12.092Z,67114.59
2023-03-06T23:15:00.058Z,67122.81
2023-03-06T23:17:54.581Z,67136.28
2023-03-06T23:20:47.155Z,67148.66
2023-03-06T23:23:37.175Z,67152.94
2023-03-06T23:26:10.933Z,67143.81
2023-03-06T23:28:38.991Z,67146.63
2023-03-06T23:31:19.023Z,67150.00
2023-03-06T23:33:46.347Z,67143.03
2023-03-06T23:36:18.214Z,67141.91
2023-03-06T23:38:45.802Z,67131.81
2023-03-06T23:41:15.716Z,67127.66
2023-03-06T23:43:43.235Z,67118.53
2023-03-06T23:46:13.502Z,67120.56
2023-03-06T23:48:42.327Z,67115.16
2023-03-06T23:51:22.925Z,67117.97
2023-03-06T23:54:00.638Z,67127.16
2023-03-06T23:56:28.493Z,67130.13
2023-03-06T23:59:08.539Z,67125.63
